createdAt,value
2022-11-02T00:00:55.998Z,10.88
2022-11-02T00:03:22.431Z,10.91
2022-11-02T00:05:48.906Z,10.93
2022-11-02T00:08:15.308Z,10.74
2022-11-02T00:10:42.031Z,10.93
2022-11-02T00:13:08.428Z,10.91
2022-11-02T00:15:36.129Z,10.88
2022-11-02T00:18:06.031Z,10.75
2022-11-02T00:20:32.582Z,10.81
2022-11-02T00:23:01.597Z,10.80
2022-11-02T00:25:29.479Z,10.61
2022-11-02T00:27:55.950Z,10.66
2022-11-02T00:30:22.399Z,10.69
2022-11-02T00:32:48.791Z,10.54
2022-11-02T00:35:15.219Z,10.52
2022-11-02T00:37:41.595Z,10.66
2022-11-02T00:40:08.640Z,10.64
2022-11-02T00:42:35.128Z,10.47
2022-11-02T00:45:01.522Z,10.48
2022-11-02T00:47:28.167Z,10.48
2022-11-02T00:49:54.723Z,10.42
2022-11-02T00:52:21.192Z,10.53
2022-11-02T00:54:47.623Z,10.41
2022-11-02T00:57:14.053Z,10.53
2022-11-02T00:59:40.673Z,10.48
2022-11-02T01:02:07.151Z,10.45
2022-11-02T01:04:33.620Z,10.27
2022-11-02T01:07:00.049Z,10.44
2022-11-02T01:09:26.444Z,10.47
2022-11-02T01:11:52.920Z,10.52
2022-11-02T01:14:19.319Z,10.53
2022-11-02T01:19:18.009Z,10.49
2022-11-02T01:21:44.661Z,10.59
2022-11-02T01:24:11.177Z,10.46
2022-11-02T01:26:37.539Z,10.39
2022-11-02T01:29:03.930Z,10.32
2022-11-02T01:31:30.335Z,10.23
2022-11-02T01:33:56.753Z,10.32
2022-11-02T01:36:23.923Z,10.28
2022-11-02T01:38:50.394Z,10.20
2022-11-02T01:41:18.025Z,10.18
2022-11-02T01:43:54.152Z,10.18
2022-11-02T01:46:24.007Z,10.18
2022-11-02T01:49:03.660Z,10.16
2022-11-02T01:51:39.183Z,10.11
2022-11-02T01:54:10.489Z,10.01
2022-11-02T01:56:40.034Z,9.79
2022-11-02T01:59:12.905Z,9.99
2022-11-02T02:01:39.553Z,9.96
2022-11-02T02:04:06.052Z,9.86
2022-11-02T02:06:33.320Z,9.86
2022-11-02T02:09:04.302Z,9.71
2022-11-02T02:11:36.597Z,9.82
2022-11-02T02:14:13.131Z,9.67
2022-11-02T02:17:03.809Z,9.62
2022-11-02T02:19:54.750Z,9.81
2022-11-02T02:22:36.512Z,9.79
2022-11-02T02:25:27.824Z,9.84
2022-11-02T02:28:32.644Z,9.72
2022-11-02T02:31:05.205Z,9.62
2022-11-02T02:33:43.577Z,9.72
2022-11-02T02:36:36.941Z,9.58
2022-11-02T02:39:17.018Z,9.66
2022-11-02T02:41:48.338Z,9.60
2022-11-02T02:44:20.956Z,9.81
2022-11-02T02:47:09.082Z,10.06
2022-11-02T02:49:41.014Z,10.06
2022-11-02T02:52:09.607Z,9.96
2022-11-02T02:54:42.582Z,10.48
2022-11-02T02:57:13.519Z,10.20
2022-11-02T02:59:43.046Z,10.35
2022-11-02T03:02:18.002Z,10.33
2022-11-02T03:04:44.626Z,10.27
2022-11-02T03:07:15.928Z,10.35
2022-11-02T03:09:51.671Z,10.41
2022-11-02T03:12:20.752Z,10.43
2022-11-02T03:15:02.302Z,10.46
2022-11-02T03:17:56.077Z,10.37
2022-11-02T03:20:26.826Z,10.37
2022-11-02T03:23:25.177Z,10.47
2022-11-02T03:26:25.315Z,10.39
2022-11-02T03:28:57.854Z,10.32
2022-11-02T03:31:33.509Z,10.51
2022-11-02T03:34:25.235Z,10.50
2022-11-02T03:36:58.084Z,10.31
2022-11-02T03:39:33.857Z,10.45
2022-11-02T03:42:03.505Z,10.50
2022-11-02T03:44:34.389Z,10.57
2022-11-02T03:47:01.578Z,10.66
2022-11-02T03:49:29.914Z,10.45
2022-11-02T03:52:01.819Z,10.63
2022-11-02T03:54:45.799Z,10.64
2022-11-02T03:57:17.996Z,10.67
2022-11-02T03:59:44.873Z,10.64
2022-11-02T04:02:13.603Z,10.65
2022-11-02T04:04:53.568Z,10.56
2022-11-02T04:07:27.472Z,10.30
2022-11-02T04:09:53.816Z,10.58
2022-11-02T04:12:39.136Z,10.62
2022-11-02T04:15:06.749Z,10.67
2022-11-02T04:17:51.895Z,10.38
2022-11-02T04:20:18.298Z,10.35
2022-11-02T04:23:03.092Z,10.41
2022-11-02T04:25:29.469Z,10.30
2022-11-02T04:27:55.898Z,10.22
2022-11-02T04:30:23.562Z,10.20
2022-11-02T04:33:09.652Z,10.13
2022-11-02T04:35:37.664Z,10.11
2022-11-02T04:38:23.595Z,10.11
2022-11-02T04:41:09.914Z,10.10
2022-11-02T04:43:36.285Z,10.03
2022-11-02T04:46:02.723Z,9.94
2022-11-02T04:48:29.142Z,10.01
2022-11-02T04:50:55.541Z,10.13
2022-11-02T04:53:21.918Z,10.19
2022-11-02T04:55:48.338Z,10.28
2022-11-02T04:58:14.703Z,10.28
2022-11-02T05:00:42.918Z,10.40
2022-11-02T05:03:12.314Z,10.42
2022-11-02T05:05:40.438Z,10.30
2022-11-02T05:08:07.319Z,10.31
2022-11-02T05:10:33.955Z,10.35
2022-11-02T05:13:01.027Z,10.30
2022-11-02T05:15:27.749Z,10.41
2022-11-02T05:17:54.258Z,10.50
2022-11-02T05:20:20.972Z,10.51
2022-11-02T05:22:47.373Z,10.55
2022-11-02T05:25:13.801Z,10.66
2022-11-02T05:27:40.232Z,10.58
2022-11-02T05:30:07.074Z,10.61
2022-11-02T05:32:33.493Z,10.71
2022-11-02T05:34:59.850Z,10.74
2022-11-02T05:37:26.315Z,10.80
2022-11-02T05:39:52.690Z,10.85
2022-11-02T05:42:19.070Z,10.93
2022-11-02T05:44:45.429Z,10.99
2022-11-02T05:47:11.873Z,11.08
2022-11-02T05:49:38.301Z,11.19
2022-11-02T05:52:05.097Z,11.13
2022-11-02T05:54:31.482Z,11.25
2022-11-02T05:56:57.923Z,11.31
2022-11-02T05:59:24.334Z,11.38
2022-11-02T06:01:50.942Z,11.44
2022-11-02T06:04:17.548Z,11.36
2022-11-02T06:06:44.073Z,11.38
2022-11-02T06:09:10.426Z,11.28
2022-11-02T06:11:37.157Z,11.25
2022-11-02T06:14:03.755Z,11.23
2022-11-02T06:16:31.028Z,11.24
2022-11-02T06:18:57.484Z,10.95
2022-11-02T06:21:23.935Z,11.19
2022-11-02T06:23:50.858Z,11.14
2022-11-02T06:26:17.743Z,11.17
2022-11-02T06:28:44.183Z,11.17
2022-11-02T06:31:10.915Z,11.12
2022-11-02T06:33:37.283Z,11.23
2022-11-02T06:36:04.024Z,11.25
2022-11-02T06:38:30.478Z,11.34
2022-11-02T06:40:59.108Z,11.30
2022-11-02T06:43:26.380Z,11.31
2022-11-02T06:45:57.470Z,11.37
2022-11-02T06:48:28.615Z,11.38
2022-11-02T06:50:57.777Z,11.35
2022-11-02T06:53:24.381Z,11.41
2022-11-02T06:55:55.493Z,11.48
2022-11-02T06:58:23.281Z,11.48
2022-11-02T07:00:50.142Z,11.38
2022-11-02T07:03:16.932Z,11.55
2022-11-02T07:05:50.707Z,11.63
2022-11-02T07:08:17.105Z,11.68
2022-11-02T07:10:43.521Z,11.63
2022-11-02T07:13:10.060Z,11.70
2022-11-02T07:15:36.497Z,11.79
2022-11-02T07:18:03.422Z,11.79
2022-11-02T07:20:30.439Z,11.91
2022-11-02T07:23:01.782Z,12.07
2022-11-02T07:25:32.955Z,12.22
2022-11-02T07:28:01.437Z,12.21
2022-11-02T07:30:29.573Z,12.36
2022-11-02T07:32:56.354Z,12.66
2022-11-02T07:35:22.904Z,12.92
2022-11-02T07:38:03.275Z,13.15
2022-11-02T07:40:30.569Z,13.42
2022-11-02T07:42:57.607Z,13.99
2022-11-02T07:45:24.993Z,13.22
2022-11-02T07:47:52.182Z,13.70
2022-11-02T07:50:21.581Z,13.78
2022-11-02T07:52:52.976Z,14.29
2022-11-02T07:55:22.232Z,13.55
2022-11-02T07:58:00.086Z,14.12
2022-11-02T08:00:28.441Z,14.34
2022-11-02T08:02:55.991Z,14.37
2022-11-02T08:05:22.939Z,14.08
2022-11-02T08:08:00.003Z,14.22
2022-11-02T08:10:27.433Z,13.89
2022-11-02T08:12:54.688Z,14.54
2022-11-02T08:15:21.706Z,14.89
2022-11-02T08:17:48.148Z,14.87
2022-11-02T08:20:14.664Z,14.15
2022-11-02T08:22:41.286Z,14.73
2022-11-02T08:25:08.395Z,14.72
2022-11-02T08:27:35.245Z,14.72
2022-11-02T08:30:01.647Z,14.82
2022-11-02T08:32:28.040Z,15.51
2022-11-02T08:34:54.440Z,15.72
2022-11-02T08:37:20.897Z,15.16
2022-11-02T08:39:47.802Z,15.48
2022-11-02T08:42:14.165Z,14.79
2022-11-02T08:44:42.654Z,15.67
2022-11-02T08:47:09.725Z,15.24
2022-11-02T08:49:36.303Z,16.66
2022-11-02T08:52:02.728Z,15.30
2022-11-02T08:54:29.101Z,16.16
2022-11-02T08:56:55.528Z,15.99
2022-11-02T08:59:21.997Z,15.92
2022-11-02T09:01:48.548Z,15.66
2022-11-02T09:04:15.076Z,15.35
2022-11-02T09:06:41.532Z,15.32
2022-11-02T09:09:08.006Z,15.92
2022-11-02T09:11:34.427Z,16.35
2022-11-02T09:14:00.855Z,16.08
2022-11-02T09:16:27.310Z,16.60
2022-11-02T09:18:53.772Z,16.03
2022-11-02T09:21:20.155Z,15.38
2022-11-02T09:23:48.484Z,16.83
2022-11-02T09:26:15.832Z,16.71
2022-11-02T09:28:42.258Z,16.01
2022-11-02T09:31:11.523Z,16.12
2022-11-02T09:33:38.462Z,16.14
2022-11-02T09:36:07.152Z,16.61
2022-11-02T09:38:33.753Z,14.97
2022-11-02T09:41:00.093Z,15.49
2022-11-02T09:43:32.457Z,15.66
2022-11-02T09:46:08.014Z,15.31
2022-11-02T09:48:45.378Z,14.71
2022-11-02T09:51:33.406Z,14.61
2022-11-02T09:54:17.162Z,15.38
2022-11-02T09:56:44.956Z,14.53
2022-11-02T09:59:15.721Z,14.17
2022-11-02T10:02:01.020Z,14.91
2022-11-02T10:04:58.495Z,14.19
2022-11-02T10:07:30.897Z,14.61
2022-11-02T10:10:13.081Z,14.34
2022-11-02T10:12:56.750Z,15.31
2022-11-02T10:15:43.796Z,15.03
2022-11-02T10:18:19.212Z,15.96
2022-11-02T10:20:48.968Z,17.52
2022-11-02T10:23:28.399Z,16.71
2022-11-02T10:25:55.799Z,16.27
2022-11-02T10:28:27.439Z,15.64
2022-11-02T10:30:54.715Z,15.57
2022-11-02T10:33:26.994Z,15.47
2022-11-02T10:36:23.696Z,15.47
2022-11-02T10:39:08.449Z,15.33
2022-11-02T10:41:56.897Z,15.58
2022-11-02T10:44:29.282Z,15.22
2022-11-02T10:47:12.673Z,15.14
2022-11-02T10:49:48.300Z,14.92
2022-11-02T10:52:16.779Z,15.03
2022-11-02T10:54:43.278Z,14.85
2022-11-02T10:57:14.755Z,14.38
2022-11-02T10:59:41.225Z,14.49
2022-11-02T11:02:11.934Z,14.53
2022-11-02T11:04:38.342Z,14.57
2022-11-02T11:07:13.078Z,14.74
2022-11-02T11:09:50.296Z,14.71
2022-11-02T11:12:22.292Z,14.32
2022-11-02T11:20:37.112Z,14.75
2022-11-02T11:23:10.302Z,14.35
2022-11-02T11:25:36.787Z,14.62
2022-11-02T11:28:22.913Z,15.19
2022-11-02T11:31:19.559Z,14.46
2022-11-02T11:33:55.073Z,14.11
2022-11-02T11:36:36.282Z,14.44
2022-11-02T11:39:07.509Z,14.04
2022-11-02T11:41:34.965Z,14.29
2022-11-02T11:44:03.205Z,15.02
2022-11-02T11:46:45.713Z,15.01
2022-11-02T11:49:35.912Z,16.53
2022-11-02T11:52:18.744Z,16.52
2022-11-02T11:54:53.932Z,16.14
2022-11-02T11:57:34.349Z,16.25
2022-11-02T12:00:04.995Z,16.69
2022-11-02T12:02:41.011Z,17.38
2022-11-02T12:05:20.819Z,18.08
2022-11-02T12:08:08.898Z,18.81
2022-11-02T12:10:42.780Z,19.59
2022-11-02T12:13:45.208Z,18.54
2022-11-02T12:16:42.285Z,19.02
2022-11-02T12:19:20.712Z,19.20
2022-11-02T12:21:58.986Z,20.30
2022-11-02T12:24:47.065Z,17.92
2022-11-02T12:27:41.510Z,18.39
2022-11-02T12:30:21.085Z,19.22
2022-11-02T12:33:13.799Z,18.06
2022-11-02T12:35:53.272Z,17.71
2022-11-02T12:38:45.496Z,17.71
2022-11-02T12:41:43.531Z,17.62
2022-11-02T12:44:18.757Z,18.75
2022-11-02T12:47:01.047Z,17.10
2022-11-02T12:49:49.385Z,16.34
2022-11-02T12:53:06.081Z,16.06
2022-11-02T12:55:38.830Z,17.13
2022-11-02T12:58:10.186Z,17.59
2022-11-02T13:00:41.383Z,18.37
2022-11-02T13:03:26.865Z,19.15
2022-11-02T13:06:02.324Z,17.23
2022-11-02T13:08:38.947Z,18.40
2022-11-02T13:11:12.766Z,18.01
2022-11-02T13:13:42.323Z,17.32
2022-11-02T13:16:10.736Z,18.60
2022-11-02T13:18:47.625Z,19.06
2022-11-02T13:21:18.884Z,16.64
2022-11-02T13:23:56.848Z,16.78
2022-11-02T13:26:41.486Z,17.12
2022-11-02T13:29:19.217Z,16.67
2022-11-02T13:31:51.652Z,16.69
2022-11-02T13:34:46.881Z,16.81
2022-11-02T13:37:22.938Z,16.48
2022-11-02T13:39:53.894Z,16.16
2022-11-02T13:42:43.256Z,16.40
2022-11-02T13:45:53.366Z,16.23
2022-11-02T13:48:48.230Z,15.93
2022-11-02T13:51:30.783Z,15.82
2022-11-02T13:54:21.206Z,15.61
2022-11-02T13:56:53.803Z,15.86
2022-11-02T13:59:30.637Z,15.67
2022-11-02T14:01:59.531Z,15.81
2022-11-02T14:04:27.323Z,15.88
2022-11-02T14:07:00.592Z,15.13
2022-11-02T14:09:36.233Z,15.17
2022-11-02T14:12:24.685Z,15.21
2022-11-02T14:15:29.785Z,14.62
2022-11-02T14:18:01.636Z,14.85
2022-11-02T14:20:39.105Z,15.05
2022-11-02T14:23:11.369Z,15.07
2022-11-02T14:26:00.466Z,14.97
2022-11-02T14:28:27.228Z,14.81
2022-11-02T14:31:05.634Z,14.64
2022-11-02T14:33:39.607Z,14.56
2022-11-02T14:36:40.771Z,14.78
2022-11-02T14:39:18.144Z,14.46
2022-11-02T14:41:56.564Z,14.51
2022-11-02T14:44:58.474Z,14.51
2022-11-02T14:47:30.925Z,14.21
2022-11-02T14:50:01.069Z,14.27
2022-11-02T14:52:29.917Z,14.17
2022-11-02T14:55:18.371Z,14.10
2022-11-02T14:58:00.283Z,13.89
2022-11-02T15:00:32.487Z,13.90
2022-11-02T15:03:00.047Z,13.81
2022-11-02T15:05:29.462Z,13.90
2022-11-02T15:08:02.161Z,13.87
2022-11-02T15:10:31.306Z,13.78
2022-11-02T15:13:19.830Z,13.75
2022-11-02T15:15:55.366Z,13.64
2022-11-02T15:18:31.007Z,13.65
2022-11-02T15:21:12.898Z,13.54
2022-11-02T15:23:52.884Z,13.45
2022-11-02T15:26:26.660Z,13.20
2022-11-02T15:28:56.978Z,13.22
2022-11-02T15:31:26.288Z,13.19
2022-11-02T15:34:02.663Z,13.16
2022-11-02T15:36:33.953Z,13.05
2022-11-02T15:39:03.781Z,13.12
2022-11-02T15:41:57.581Z,13.10
2022-11-02T15:44:27.179Z,12.97
2022-11-02T15:47:06.078Z,12.89
2022-11-02T15:49:50.384Z,12.63
2022-11-02T15:52:28.848Z,12.82
2022-11-02T15:55:31.309Z,12.75
2022-11-02T15:58:25.804Z,12.66
2022-11-02T16:01:05.640Z,12.46
2022-11-02T16:03:32.694Z,12.56
2022-11-02T16:06:03.173Z,12.58
2022-11-02T16:08:34.779Z,12.49
2022-11-02T16:11:19.841Z,12.40
2022-11-02T16:14:08.026Z,12.40
2022-11-02T16:16:36.065Z,12.39
2022-11-02T16:19:02.718Z,12.35
2022-11-02T16:21:29.334Z,12.29
2022-11-02T16:23:57.522Z,12.25
2022-11-02T16:26:27.799Z,12.20
2022-11-02T16:29:00.121Z,12.20
2022-11-02T16:31:31.210Z,12.17
2022-11-02T16:34:05.249Z,12.13
2022-11-02T16:36:36.533Z,12.13
2022-11-02T16:39:20.842Z,12.04
2022-11-02T16:41:50.741Z,12.05
2022-11-02T16:44:31.240Z,12.06
2022-11-02T16:47:06.595Z,11.96
2022-11-02T16:49:53.827Z,11.88
2022-11-02T16:52:23.734Z,11.82
2022-11-02T16:54:50.500Z,11.79
2022-11-02T16:57:23.827Z,11.75
2022-11-02T16:59:59.444Z,11.62
2022-11-02T17:02:38.221Z,11.55
2022-11-02T17:05:07.305Z,11.48
2022-11-02T17:07:41.866Z,11.63
2022-11-02T17:10:18.173Z,11.54
2022-11-02T17:12:45.370Z,11.40
2022-11-02T17:15:18.724Z,11.27
2022-11-02T17:17:45.806Z,11.33
2022-11-02T17:20:14.876Z,11.26
2022-11-02T17:23:01.462Z,11.23
2022-11-02T17:25:29.671Z,11.19
2022-11-02T17:28:01.635Z,11.05
2022-11-02T17:30:34.278Z,11.09
2022-11-02T17:33:06.845Z,10.90
2022-11-02T17:35:33.700Z,10.96
2022-11-02T17:38:01.059Z,11.04
2022-11-02T17:40:27.559Z,10.94
2022-11-02T17:43:00.831Z,11.06
2022-11-02T17:45:33.498Z,10.91
2022-11-02T17:48:01.773Z,10.88
2022-11-02T17:50:30.808Z,10.94
2022-11-02T17:52:58.785Z,10.86
2022-11-02T17:55:27.773Z,10.89
2022-11-02T17:57:55.082Z,10.87
2022-11-02T18:00:23.257Z,10.85
2022-11-02T18:02:55.292Z,10.84
2022-11-02T18:05:27.792Z,10.78
2022-11-02T18:07:56.062Z,10.48
2022-11-02T18:10:34.287Z,10.70
2022-11-02T18:13:00.873Z,10.77
2022-11-02T18:15:30.364Z,10.81
2022-11-02T18:17:56.981Z,10.68
2022-11-02T18:20:24.355Z,11.06
2022-11-02T18:22:50.832Z,10.71
2022-11-02T18:25:18.343Z,10.74
2022-11-02T18:27:46.113Z,10.70
2022-11-02T18:30:16.105Z,10.65
2022-11-02T18:32:43.926Z,10.49
2022-11-02T18:35:12.956Z,10.58
2022-11-02T18:37:40.144Z,10.66
2022-11-02T18:40:08.110Z,10.67
2022-11-02T18:42:39.137Z,10.73
2022-11-02T18:45:06.914Z,10.69
2022-11-02T18:47:33.624Z,10.53
2022-11-02T18:50:00.758Z,10.57
2022-11-02T18:52:32.088Z,10.54
2022-11-02T18:55:03.406Z,10.75
2022-11-02T18:57:30.492Z,10.58
2022-11-02T18:59:57.067Z,10.63
2022-11-02T19:02:23.859Z,10.71
2022-11-02T19:04:50.337Z,10.69
2022-11-02T19:07:35.504Z,10.62
2022-11-02T19:10:03.898Z,10.63
2022-11-02T19:12:30.979Z,10.64
2022-11-02T19:14:58.008Z,10.64
2022-11-02T19:17:26.207Z,10.56
2022-11-02T19:19:52.858Z,10.59
2022-11-02T19:22:22.089Z,10.62
2022-11-02T19:24:48.867Z,10.60
2022-11-02T19:27:20.515Z,10.50
2022-11-02T19:29:47.255Z,10.62
2022-11-02T19:32:14.211Z,10.47
2022-11-02T19:34:40.755Z,10.68
2022-11-02T19:37:08.470Z,10.61
2022-11-02T19:39:35.092Z,10.48
2022-11-02T19:42:03.447Z,10.55
2022-11-02T19:44:30.588Z,10.29
2022-11-02T19:46:56.971Z,9.82
2022-11-02T19:49:23.374Z,10.04
2022-11-02T19:51:49.866Z,9.98
2022-11-02T19:54:16.371Z,9.97
2022-11-02T19:56:42.904Z,9.97
2022-11-02T19:59:09.326Z,9.82
2022-11-02T20:01:38.450Z,9.74
2022-11-02T20:04:06.034Z,9.53
2022-11-02T20:06:38.481Z,9.48
2022-11-02T20:09:07.619Z,9.31
2022-11-02T20:11:36.174Z,9.37
2022-11-02T20:14:04.982Z,9.47
2022-11-02T20:16:31.417Z,9.05
2022-11-02T20:18:58.940Z,9.35
2022-11-02T20:21:32.307Z,9.30
2022-11-02T20:24:00.389Z,9.05
2022-11-02T20:26:32.288Z,9.23
2022-11-02T20:29:03.106Z,9.03
2022-11-02T20:31:35.634Z,8.76
2022-11-02T20:34:04.908Z,8.58
2022-11-02T20:36:31.423Z,8.84
2022-11-02T20:38:58.283Z,8.73
2022-11-02T20:41:25.063Z,8.79
2022-11-02T20:43:53.393Z,8.71
2022-11-02T20:46:41.124Z,8.39
2022-11-02T20:49:20.677Z,8.17
2022-11-02T20:51:48.024Z,8.13
2022-11-02T20:54:14.501Z,8.24
2022-11-02T20:56:40.968Z,8.24
2022-11-02T20:59:07.410Z,8.41
2022-11-02T21:01:34.893Z,8.20
2022-11-02T21:04:01.792Z,7.90
2022-11-02T21:06:28.170Z,7.74
2022-11-02T21:08:54.716Z,7.66
2022-11-02T21:11:39.654Z,7.39
2022-11-02T21:14:06.044Z,7.42
2022-11-02T21:16:33.807Z,7.49
2022-11-02T21:19:00.287Z,7.43
2022-11-02T21:21:26.727Z,7.41
2022-11-02T21:23:53.231Z,7.27
2022-11-02T21:26:19.680Z,7.19
2022-11-02T21:28:46.227Z,7.25
2022-11-02T21:31:16.497Z,7.21
2022-11-02T21:33:44.005Z,7.17
2022-11-02T21:36:10.788Z,7.01
2022-11-02T21:38:38.386Z,6.85
2022-11-02T21:41:06.975Z,6.74
2022-11-02T21:43:36.745Z,6.56
2022-11-02T21:46:05.872Z,6.53
2022-11-02T21:48:34.531Z,6.43
2022-11-02T21:51:15.534Z,6.48
2022-11-02T21:53:43.743Z,6.48
2022-11-02T21:56:12.790Z,6.55
2022-11-02T21:58:44.670Z,6.69
2022-11-02T22:01:31.042Z,6.58
2022-11-02T22:03:58.413Z,6.41
2022-11-02T22:06:30.773Z,6.29
2022-11-02T22:08:58.044Z,6.50
2022-11-02T22:11:27.946Z,6.53
2022-11-02T22:13:56.122Z,6.58
2022-11-02T22:16:28.212Z,6.31
2022-11-02T22:19:04.250Z,6.45
2022-11-02T22:21:33.005Z,6.50
2022-11-02T22:24:00.102Z,6.33
2022-11-02T22:26:29.381Z,6.30
2022-11-02T22:28:57.737Z,6.49
2022-11-02T22:31:26.646Z,6.40
2022-11-02T22:33:55.779Z,6.13
2022-11-02T22:36:24.897Z,6.10
2022-11-02T22:38:53.764Z,6.06
2022-11-02T22:41:26.365Z,6.14
2022-11-02T22:44:03.828Z,6.13
2022-11-02T22:46:32.930Z,6.27
2022-11-02T22:49:00.403Z,6.10
2022-11-02T22:51:28.763Z,6.26
2022-11-02T22:53:55.665Z,6.13
2022-11-02T22:56:23.316Z,6.02
2022-11-02T22:58:50.503Z,6.06
2022-11-02T23:01:20.394Z,5.96
2022-11-02T23:03:47.734Z,5.97
2022-11-02T23:06:15.303Z,6.14
2022-11-02T23:08:45.499Z,6.07
2022-11-02T23:11:22.662Z,6.03
2022-11-02T23:13:54.049Z,6.13
2022-11-02T23:16:28.619Z,5.85
2022-11-02T23:19:19.003Z,6.03
2022-11-02T23:22:22.447Z,6.05
2022-11-02T23:25:10.017Z,6.16
2022-11-02T23:28:16.231Z,6.08
2022-11-02T23:31:01.844Z,6.04
2022-11-02T23:33:33.339Z,5.96
2022-11-02T23:36:13.715Z,6.05
2022-11-02T23:39:00.248Z,5.83
2022-11-02T23:41:26.872Z,5.96
2022-11-02T23:44:11.577Z,5.97
2022-11-02T23:46:39.162Z,6.24
2022-11-02T23:49:05.768Z,5.98
2022-11-02T23:51:50.930Z,5.91
2022-11-02T23:54:36.543Z,6.02
2022-11-02T23:57:03.229Z,5.80
2022-11-02T23:59:29.757Z,5.72
